sensor_id;sensor_type;location;lat;lon;timestamp;pressure;altitude;pressure_sealevel;temperature;humidity
47154;BME280;32907;41.412;2.164;2023-06-22T00:00:43;100164.41;;;27.64;55.35
47154;BME280;32907;41.412;2.164;2023-06-22T00:03:13;100271.84;;;28.32;55.18
47154;BME280;32907;41.412;2.164;2023-06-22T00:05:41;100220.16;;;28.01;55.43
47154;BME280;32907;41.412;2.164;2023-06-22T00:08:12;100193.38;;;27.85;55.35
47154;BME280;32907;41.412;2.164;2023-06-22T00:10:42;100147.44;;;27.62;55.06
47154;BME280;32907;41.412;2.164;2023-06-22T00:13:12;100157.66;;;27.61;55.07
47154;BME280;32907;41.412;2.164;2023-06-22T00:15:41;100157.09;;;27.68;55.38
47154;BME280;32907;41.412;2.164;2023-06-22T00:18:10;100078.75;;;27.25;54.93
47154;BME280;32907;41.412;2.164;2023-06-22T00:20:42;100093.88;;;27.31;55.17
47154;BME280;32907;41.412;2.164;2023-06-22T00:23:13;99981.47;;;26.77;54.77
47154;BME280;32907;41.412;2.164;2023-06-22T00:25:43;100186.28;;;28.00;54.81
47154;BME280;32907;41.412;2.164;2023-06-22T00:28:11;100259.28;;;28.34;54.75
47154;BME280;32907;41.412;2.164;2023-06-22T00:30:40;100141.88;;;27.74;54.69
47154;BME280;32907;41.412;2.164;2023-06-22T00:33:09;100020.91;;;26.81;54.69
47154;BME280;32907;41.412;2.164;2023-06-22T00:35:39;100163.44;;;27.84;54.62
47154;BME280;32907;41.412;2.164;2023-06-22T00:38:11;100106.97;;;27.50;54.47
47154;BME280;32907;41.412;2.164;2023-06-22T00:40:42;100250.22;;;28.34;54.33
47154;BME280;32907;41.412;2.164;2023-06-22T00:43:10;100085.63;;;27.31;54.14
47154;BME280;32907;41.412;2.164;2023-06-22T00:45:39;99998.91;;;26.81;54.11
47154;BME280;32907;41.412;2.164;2023-06-22T00:48:09;100101.09;;;27.36;54.27
47154;BME280;32907;41.412;2.164;2023-06-22T00:50:37;100254.59;;;28.23;54.19
47154;BME280;32907;41.412;2.164;2023-06-22T00:53:08;100216.53;;;28.12;54.14
47154;BME280;32907;41.412;2.164;2023-06-22T00:55:43;100114.72;;;27.44;53.90
47154;BME280;32907;41.412;2.164;2023-06-22T00:58:13;100175.69;;;27.86;53.81
47154;BME280;32907;41.412;2.164;2023-06-22T01:00:41;100212.53;;;28.10;53.67
47154;BME280;32907;41.412;2.164;2023-06-22T01:03:10;100082.88;;;27.31;53.70
47154;BME280;32907;41.412;2.164;2023-06-22T01:05:39;100053.63;;;26.98;53.83
47154;BME280;32907;41.412;2.164;2023-06-22T01:08:33;100232.09;;;28.21;53.54
47154;BME280;32907;41.412;2.164;2023-06-22T01:13:57;100238.59;;;28.28;53.48
47154;BME280;32907;41.412;2.164;2023-06-22T01:16:31;100213.56;;;28.05;53.13
47154;BME280;32907;41.412;2.164;2023-06-22T01:19:46;100034.06;;;26.88;53.49
47154;BME280;32907;41.412;2.164;2023-06-22T01:21:55;100171.50;;;27.65;53.33
47154;BME280;32907;41.412;2.164;2023-06-22T01:27:56;100248.03;;;28.27;52.92
47154;BME280;32907;41.412;2.164;2023-06-22T01:30:30;100261.81;;;28.27;53.38
47154;BME280;32907;41.412;2.164;2023-06-22T01:33:05;100197.22;;;27.97;53.59
47154;BME280;32907;41.412;2.164;2023-06-22T01:35:33;100262.63;;;28.28;53.35
47154;BME280;32907;41.412;2.164;2023-06-22T01:40:07;100257.63;;;28.18;53.27
47154;BME280;32907;41.412;2.164;2023-06-22T01:42:37;100152.34;;;27.40;53.24
47154;BME280;32907;41.412;2.164;2023-06-22T01:45:07;100103.81;;;27.20;53.28
47154;BME280;32907;41.412;2.164;2023-06-22T01:47:38;100140.38;;;27.48;53.05
47154;BME280;32907;41.412;2.164;2023-06-22T01:50:11;100263.66;;;28.23;52.83
47154;BME280;32907;41.412;2.164;2023-06-22T01:52:41;100159.06;;;27.55;53.16
47154;BME280;32907;41.412;2.164;2023-06-22T01:55:09;100118.75;;;27.35;53.00
47154;BME280;32907;41.412;2.164;2023-06-22T01:57:38;100247.75;;;28.17;52.78
47154;BME280;32907;41.412;2.164;2023-06-22T02:00:11;100157.81;;;27.52;52.59
47154;BME280;32907;41.412;2.164;2023-06-22T02:05:16;100111.50;;;27.14;51.92
47154;BME280;32907;41.412;2.164;2023-06-22T02:10:37;100269.66;;;27.97;52.02
47154;BME280;32907;41.412;2.164;2023-06-22T02:13:08;100193.25;;;27.54;52.24
47154;BME280;32907;41.412;2.164;2023-06-22T02:15:37;100206.66;;;27.68;51.81
47154;BME280;32907;41.412;2.164;2023-06-22T02:18:08;100206.31;;;27.69;51.70
47154;BME280;32907;41.412;2.164;2023-06-22T02:20:38;100270.44;;;28.26;51.82
47154;BME280;32907;41.412;2.164;2023-06-22T02:23:06;100298.81;;;28.26;51.81
47154;BME280;32907;41.412;2.164;2023-06-22T02:25:37;100047.81;;;26.88;51.62
47154;BME280;32907;41.412;2.164;2023-06-22T02:28:05;100243.53;;;28.07;51.75
47154;BME280;32907;41.412;2.164;2023-06-22T02:30:33;100062.59;;;26.95;51.45
47154;BME280;32907;41.412;2.164;2023-06-22T02:33:01;100106.78;;;27.15;51.32
47154;BME280;32907;41.412;2.164;2023-06-22T02:35:30;100255.56;;;28.14;51.35
47154;BME280;32907;41.412;2.164;2023-06-22T02:38:04;100170.06;;;27.55;51.04
47154;BME280;32907;41.412;2.164;2023-06-22T02:40:33;100274.13;;;28.30;51.24
47154;BME280;32907;41.412;2.164;2023-06-22T02:43:02;100215.16;;;27.91;51.71
47154;BME280;32907;41.412;2.164;2023-06-22T02:45:31;100101.06;;;27.20;51.37
47154;BME280;32907;41.412;2.164;2023-06-22T02:48:00;100247.34;;;28.30;51.84
47154;BME280;32907;41.412;2.164;2023-06-22T02:50:29;100249.31;;;28.30;51.63
47154;BME280;32907;41.412;2.164;2023-06-22T02:52:58;100177.88;;;27.81;51.96
47154;BME280;32907;41.412;2.164;2023-06-22T02:55:29;100249.31;;;28.30;51.63
47154;BME280;32907;41.412;2.164;2023-06-22T02:57:58;100246.75;;;28.09;51.85
47154;BME280;32907;41.412;2.164;2023-06-22T03:00:31;100152.47;;;27.44;51.50
47154;BME280;32907;41.412;2.164;2023-06-22T03:03:00;100153.25;;;27.44;51.93
47154;BME280;32907;41.412;2.164;2023-06-22T03:05:28;100063.72;;;26.94;51.79
47154;BME280;32907;41.412;2.164;2023-06-22T03:08:00;100171.38;;;27.73;51.43
47154;BME280;32907;41.412;2.164;2023-06-22T03:10:33;100260.66;;;28.28;51.59
47154;BME280;32907;41.412;2.164;2023-06-22T03:13:01;100124.00;;;27.40;51.54
47154;BME280;32907;41.412;2.164;2023-06-22T03:15:30;100216.59;;;28.00;51.42
47154;BME280;32907;41.412;2.164;2023-06-22T03:18:01;100114.38;;;27.33;51.45
47154;BME280;32907;41.412;2.164;2023-06-22T03:20:31;100073.31;;;27.13;51.59
47154;BME280;32907;41.412;2.164;2023-06-22T03:23:03;100225.31;;;28.02;51.45
47154;BME280;32907;41.412;2.164;2023-06-22T03:25:32;100117.94;;;27.34;51.17
47154;BME280;32907;41.412;2.164;2023-06-22T03:28:03;100207.31;;;27.77;50.73
47154;BME280;32907;41.412;2.164;2023-06-22T03:30:31;100274.69;;;28.23;51.15
47154;BME280;32907;41.412;2.164;2023-06-22T03:33:00;100139.97;;;27.34;50.68
47154;BME280;32907;41.412;2.164;2023-06-22T03:35:28;100271.13;;;28.23;50.66
47154;BME280;32907;41.412;2.164;2023-06-22T03:37:56;100237.16;;;28.03;50.54
47154;BME280;32907;41.412;2.164;2023-06-22T03:40:25;100137.22;;;27.34;50.70
47154;BME280;32907;41.412;2.164;2023-06-22T03:42:56;100030.78;;;26.70;50.51
47154;BME280;32907;41.412;2.164;2023-06-22T03:45:26;100151.16;;;27.53;50.47
47154;BME280;32907;41.412;2.164;2023-06-22T03:47:54;100107.63;;;27.31;50.43
47154;BME280;32907;41.412;2.164;2023-06-22T03:50:23;100153.00;;;27.49;50.33
47154;BME280;32907;41.412;2.164;2023-06-22T03:52:51;100149.81;;;27.35;50.25
47154;BME280;32907;41.412;2.164;2023-06-22T03:55:21;100064.66;;;26.86;50.04
47154;BME280;32907;41.412;2.164;2023-06-22T03:57:51;100239.16;;;27.90;49.71
47154;BME280;32907;41.412;2.164;2023-06-22T04:00:20;100282.81;;;28.16;49.80
47154;BME280;32907;41.412;2.164;2023-06-22T04:02:51;100325.84;;;28.21;49.59
47154;BME280;32907;41.412;2.164;2023-06-22T04:05:19;100092.28;;;26.90;49.67
47154;BME280;32907;41.412;2.164;2023-06-22T04:07:47;100150.88;;;27.30;49.65
47154;BME280;32907;41.412;2.164;2023-06-22T04:10:15;100294.88;;;28.11;49.32
47154;BME280;32907;41.412;2.164;2023-06-22T04:12:47;100172.31;;;27.37;49.14
47154;BME280;32907;41.412;2.164;2023-06-22T04:15:15;100290.16;;;28.12;49.48
47154;BME280;32907;41.412;2.164;2023-06-22T04:17:43;100292.81;;;28.08;49.17
47154;BME280;32907;41.412;2.164;2023-06-22T04:20:11;100238.66;;;27.72;49.09
47154;BME280;32907;41.412;2.164;2023-06-22T04:22:39;100074.38;;;26.56;48.85
47154;BME280;32907;41.412;2.164;2023-06-22T04:25:08;100210.13;;;27.52;48.58
47154;BME280;32907;41.412;2.164;2023-06-22T04:27:36;100280.00;;;28.00;48.11
47154;BME280;32907;41.412;2.164;2023-06-22T04:30:08;100214.50;;;27.53;47.87
47154;BME280;32907;41.412;2.164;2023-06-22T04:32:36;100290.34;;;27.91;46.88
47154;BME280;32907;41.412;2.164;2023-06-22T04:35:04;100311.66;;;28.06;46.87
47154;BME280;32907;41.412;2.164;2023-06-22T04:37:34;100184.06;;;27.22;46.09
47154;BME280;32907;41.412;2.164;2023-06-22T04:40:04;100276.88;;;27.74;45.81
47154;BME280;32907;41.412;2.164;2023-06-22T04:42:37;100173.34;;;27.04;45.74
47154;BME280;32907;41.412;2.164;2023-06-22T04:45:06;100182.75;;;27.03;45.55
47154;BME280;32907;41.412;2.164;2023-06-22T04:47:38;100161.41;;;26.88;45.80
47154;BME280;32907;41.412;2.164;2023-06-22T04:50:07;100333.97;;;28.01;45.61
47154;BME280;32907;41.412;2.164;2023-06-22T04:52:35;100319.06;;;27.90;44.63
47154;BME280;32907;41.412;2.164;2023-06-22T04:55:05;100318.19;;;27.86;45.22
47154;BME280;32907;41.412;2.164;2023-06-22T04:57:33;100278.50;;;27.50;45.24
47154;BME280;32907;41.412;2.164;2023-06-22T05:00:03;100269.13;;;27.39;45.21
47154;BME280;32907;41.412;2.164;2023-06-22T05:02:42;100188.25;;;27.03;44.88
47154;BME280;32907;41.412;2.164;2023-06-22T05:05:10;100348.19;;;28.03;44.87
47154;BME280;32907;41.412;2.164;2023-06-22T05:07:42;100220.22;;;27.20;44.13
47154;BME280;32907;41.412;2.164;2023-06-22T05:10:11;100194.53;;;26.92;44.53
47154;BME280;32907;41.412;2.164;2023-06-22T05:12:42;100274.28;;;27.53;44.85
47154;BME280;32907;41.412;2.164;2023-06-22T05:15:11;100367.50;;;28.03;44.60
47154;BME280;32907;41.412;2.164;2023-06-22T05:17:42;100240.94;;;27.18;44.68
47154;BME280;32907;41.412;2.164;2023-06-22T05:20:13;100205.56;;;27.04;44.44
47154;BME280;32907;41.412;2.164;2023-06-22T05:22:41;100242.31;;;27.24;45.03
47154;BME280;32907;41.412;2.164;2023-06-22T05:25:13;100348.78;;;27.97;45.37
47154;BME280;32907;41.412;2.164;2023-06-22T05:27:41;100182.75;;;26.79;45.43
47154;BME280;32907;41.412;2.164;2023-06-22T05:30:09;100231.66;;;27.22;45.05
47154;BME280;32907;41.412;2.164;2023-06-22T05:32:38;100375.97;;;28.10;45.46
47154;BME280;32907;41.412;2.164;2023-06-22T05:35:09;100282.09;;;27.39;44.69
47154;BME280;32907;41.412;2.164;2023-06-22T05:37:43;100407.53;;;28.13;45.28
47154;BME280;32907;41.412;2.164;2023-06-22T05:40:15;100315.91;;;27.64;45.76
47154;BME280;32907;41.412;2.164;2023-06-22T05:42:44;100195.47;;;26.71;45.75
47154;BME280;32907;41.412;2.164;2023-06-22T05:45:12;100266.66;;;27.22;45.34
47154;BME280;32907;41.412;2.164;2023-06-22T05:47:41;100397.25;;;27.98;45.54
47154;BME280;32907;41.412;2.164;2023-06-22T05:50:10;100397.16;;;27.94;45.69
47154;BME280;32907;41.412;2.164;2023-06-22T05:52:40;100385.81;;;27.83;46.53
47154;BME280;32907;41.412;2.164;2023-06-22T05:55:10;100386.63;;;27.84;46.65
47154;BME280;32907;41.412;2.164;2023-06-22T05:57:39;100392.31;;;27.91;46.06
47154;BME280;32907;41.412;2.164;2023-06-22T06:00:08;100380.63;;;27.82;46.35
47154;BME280;32907;41.412;2.164;2023-06-22T06:02:40;100395.44;;;27.90;46.33
47154;BME280;32907;41.412;2.164;2023-06-22T06:05:11;100376.06;;;27.74;45.84
47154;BME280;32907;41.412;2.164;2023-06-22T06:07:45;100399.81;;;27.78;45.53
47154;BME280;32907;41.412;2.164;2023-06-22T06:10:14;100389.94;;;27.65;46.08
47154;BME280;32907;41.412;2.164;2023-06-22T06:12:41;100374.59;;;27.52;45.77
47154;BME280;32907;41.412;2.164;2023-06-22T06:15:09;100387.31;;;27.56;46.05
47154;BME280;32907;41.412;2.164;2023-06-22T06:17:52;100401.09;;;27.69;45.86
47154;BME280;32907;41.412;2.164;2023-06-22T06:20:23;100392.94;;;27.60;45.78
47154;BME280;32907;41.412;2.164;2023-06-22T06:22:54;100411.66;;;27.67;45.79
47154;BME280;32907;41.412;2.164;2023-06-22T06:25:24;100360.94;;;27.31;45.59
47154;BME280;32907;41.412;2.164;2023-06-22T06:27:53;100417.97;;;27.67;45.56
47154;BME280;32907;41.412;2.164;2023-06-22T06:30:24;100427.25;;;27.75;45.75
47154;BME280;32907;41.412;2.164;2023-06-22T06:32:52;100422.00;;;27.70;45.36
47154;BME280;32907;41.412;2.164;2023-06-22T06:35:20;100416.22;;;27.63;45.28
47154;BME280;32907;41.412;2.164;2023-06-22T06:37:52;100438.06;;;27.68;45.62
47154;BME280;32907;41.412;2.164;2023-06-22T06:40:20;100422.66;;;27.54;45.80
47154;BME280;32907;41.412;2.164;2023-06-22T06:42:48;100421.06;;;27.53;45.62
47154;BME280;32907;41.412;2.164;2023-06-22T06:45:21;100443.69;;;27.71;45.58
47154;BME280;32907;41.412;2.164;2023-06-22T06:47:53;100440.94;;;27.71;45.45
47154;BME280;32907;41.412;2.164;2023-06-22T06:50:21;100445.84;;;27.78;45.51
47154;BME280;32907;41.412;2.164;2023-06-22T06:52:49;100388.47;;;27.43;45.74
47154;BME280;32907;41.412;2.164;2023-06-22T06:55:19;100402.69;;;27.45;45.30
47154;BME280;32907;41.412;2.164;2023-06-22T06:57:48;100429.66;;;27.64;45.42
47154;BME280;32907;41.412;2.164;2023-06-22T07:00:18;100448.13;;;27.88;45.05
47154;BME280;32907;41.412;2.164;2023-06-22T07:02:46;100440.00;;;27.79;45.50
47154;BME280;32907;41.412;2.164;2023-06-22T07:05:16;100441.25;;;27.82;44.76
47154;BME280;32907;41.412;2.164;2023-06-22T07:07:44;100458.59;;;27.95;44.68
47154;BME280;32907;41.412;2.164;2023-06-22T07:10:12;100446.75;;;27.94;45.05
47154;BME280;32907;41.412;2.164;2023-06-22T07:12:40;100456.41;;;28.00;45.36
47154;BME280;32907;41.412;2.164;2023-06-22T07:15:10;100456.63;;;27.95;44.43
47154;BME280;32907;41.412;2.164;2023-06-22T07:17:40;100430.84;;;27.75;45.32
47154;BME280;32907;41.412;2.164;2023-06-22T07:20:09;100453.78;;;27.92;45.23
47154;BME280;32907;41.412;2.164;2023-06-22T07:22:44;100452.94;;;27.91;44.96
47154;BME280;32907;41.412;2.164;2023-06-22T07:25:15;100456.41;;;28.00;45.13
47154;BME280;32907;41.412;2.164;2023-06-22T07:28:06;100433.09;;;27.85;44.18
47154;BME280;32907;41.412;2.164;2023-06-22T07:30:34;100466.63;;;28.00;45.26
47154;BME280;32907;41.412;2.164;2023-06-22T07:33:03;100447.56;;;27.95;45.46
47154;BME280;32907;41.412;2.164;2023-06-22T07:35:32;100470.06;;;28.09;45.31
47154;BME280;32907;41.412;2.164;2023-06-22T07:38:00;100428.03;;;27.87;45.18
47154;BME280;32907;41.412;2.164;2023-06-22T07:40:33;100472.69;;;28.18;45.47
47154;BME280;32907;41.412;2.164;2023-06-22T07:43:02;100485.75;;;28.21;45.35
47154;BME280;32907;41.412;2.164;2023-06-22T07:45:31;100438.97;;;27.84;44.91
47154;BME280;32907;41.412;2.164;2023-06-22T07:48:01;100466.00;;;28.06;44.70
47154;BME280;32907;41.412;2.164;2023-06-22T07:50:29;100465.13;;;28.02;44.21
47154;BME280;32907;41.412;2.164;2023-06-22T07:52:59;100484.84;;;28.17;44.25
47154;BME280;32907;41.412;2.164;2023-06-22T07:55:28;100498.88;;;28.24;44.51
47154;BME280;32907;41.412;2.164;2023-06-22T07:57:59;100474.28;;;28.06;44.54
47154;BME280;32907;41.412;2.164;2023-06-22T08:00:27;100521.13;;;28.31;44.41
47154;BME280;32907;41.412;2.164;2023-06-22T08:02:55;100525.97;;;28.34;44.59
47154;BME280;32907;41.412;2.164;2023-06-22T08:05:24;100493.13;;;28.04;44.45
47154;BME280;32907;41.412;2.164;2023-06-22T08:07:52;100528.75;;;28.34;44.26
47154;BME280;32907;41.412;2.164;2023-06-22T08:10:23;100537.00;;;28.34;44.35
47154;BME280;32907;41.412;2.164;2023-06-22T08:12:53;100537.00;;;28.34;44.19
47154;BME280;32907;41.412;2.164;2023-06-22T08:15:22;100540.44;;;28.31;44.14
47154;BME280;32907;41.412;2.164;2023-06-22T08:17:50;100549.66;;;28.35;44.05
47154;BME280;32907;41.412;2.164;2023-06-22T08:20:20;100511.84;;;28.11;44.03
47154;BME280;32907;41.412;2.164;2023-06-22T08:22:49;100533.31;;;28.30;44.34
47154;BME280;32907;41.412;2.164;2023-06-22T08:25:17;100520.34;;;28.18;43.99
47154;BME280;32907;41.412;2.164;2023-06-22T08:27:46;100522.41;;;28.21;44.60
47154;BME280;32907;41.412;2.164;2023-06-22T08:30:18;100514.38;;;28.16;44.23
47154;BME280;32907;41.412;2.164;2023-06-22T08:32:48;100534.44;;;28.29;44.31
47154;BME280;32907;41.412;2.164;2023-06-22T08:35:16;100510.22;;;28.22;44.37
47154;BME280;32907;41.412;2.164;2023-06-22T08:37:45;100523.78;;;28.27;44.39
47154;BME280;32907;41.412;2.164;2023-06-22T08:40:20;100522.41;;;28.33;44.59
47154;BME280;32907;41.412;2.164;2023-06-22T08:42:49;100502.28;;;28.21;44.47
47154;BME280;32907;41.412;2.164;2023-06-22T08:45:17;100525.63;;;28.35;44.84
47154;BME280;32907;41.412;2.164;2023-06-22T08:47:45;100515.63;;;28.31;44.32
47154;BME280;32907;41.412;2.164;2023-06-22T08:50:13;100505.28;;;28.28;44.78
47154;BME280;32907;41.412;2.164;2023-06-22T08:52:42;100477.75;;;28.15;44.55
47154;BME280;32907;41.412;2.164;2023-06-22T08:55:10;100495.03;;;28.28;44.55
47154;BME280;32907;41.412;2.164;2023-06-22T08:57:38;100530.41;;;28.51;44.65
47154;BME280;32907;41.412;2.164;2023-06-22T09:00:08;100470.28;;;28.16;44.88
47154;BME280;32907;41.412;2.164;2023-06-22T09:02:48;100513.31;;;28.45;44.93
47154;BME280;32907;41.412;2.164;2023-06-22T09:05:17;100476.31;;;28.22;44.93
47154;BME280;32907;41.412;2.164;2023-06-22T09:07:45;100523.50;;;28.57;43.78
47154;BME280;32907;41.412;2.164;2023-06-22T09:10:13;100514.66;;;28.51;44.02
47154;BME280;32907;41.412;2.164;2023-06-22T09:12:41;100494.69;;;28.42;44.07
47154;BME280;32907;41.412;2.164;2023-06-22T09:15:10;100526.47;;;28.64;43.90
47154;BME280;32907;41.412;2.164;2023-06-22T09:17:54;100498.72;;;28.45;43.94
47154;BME280;32907;41.412;2.164;2023-06-22T09:20:23;100526.56;;;28.67;43.79
47154;BME280;32907;41.412;2.164;2023-06-22T09:22:53;100494.19;;;28.52;44.90
47154;BME280;32907;41.412;2.164;2023-06-22T09:25:21;100503.13;;;28.61;46.53
47154;BME280;32907;41.412;2.164;2023-06-22T09:27:53;100532.59;;;28.85;46.35
47154;BME280;32907;41.412;2.164;2023-06-22T09:30:21;100536.38;;;28.93;45.55
47154;BME280;32907;41.412;2.164;2023-06-22T09:32:49;100542.34;;;28.95;45.41
47154;BME280;32907;41.412;2.164;2023-06-22T09:35:18;100546.13;;;29.03;45.53
47154;BME280;32907;41.412;2.164;2023-06-22T09:37:45;100532.09;;;28.95;45.71
47154;BME280;32907;41.412;2.164;2023-06-22T09:40:14;100448.25;;;28.44;46.63
47154;BME280;32907;41.412;2.164;2023-06-22T09:42:44;100518.09;;;28.88;45.66
47154;BME280;32907;41.412;2.164;2023-06-22T09:45:13;100540.44;;;29.11;45.04
47154;BME280;32907;41.412;2.164;2023-06-22T09:47:41;100479.94;;;28.78;43.79
47154;BME280;32907;41.412;2.164;2023-06-22T09:50:10;100542.88;;;29.13;43.95
47154;BME280;32907;41.412;2.164;2023-06-22T09:52:38;100523.78;;;29.08;43.29
47154;BME280;32907;41.412;2.164;2023-06-22T09:55:08;100548.66;;;29.23;43.38
47154;BME280;32907;41.412;2.164;2023-06-22T09:57:38;100550.28;;;29.24;43.22
47154;BME280;32907;41.412;2.164;2023-06-22T10:00:06;100417.97;;;28.32;43.36
47154;BME280;32907;41.412;2.164;2023-06-22T10:02:37;100490.66;;;28.80;42.48
47154;BME280;32907;41.412;2.164;2023-06-22T10:05:06;100534.66;;;29.16;41.82
47154;BME280;32907;41.412;2.164;2023-06-22T10:07:37;100470.63;;;28.83;41.86
47154;BME280;32907;41.412;2.164;2023-06-22T10:10:13;100400.72;;;28.35;41.76
47154;BME280;32907;41.412;2.164;2023-06-22T10:12:44;100313.06;;;28.00;42.35
47154;BME280;32907;41.412;2.164;2023-06-22T10:15:14;100424.28;;;28.60;42.50
47154;BME280;32907;41.412;2.164;2023-06-22T10:17:43;100447.19;;;28.77;41.84
47154;BME280;32907;41.412;2.164;2023-06-22T10:20:13;100511.16;;;29.22;42.02
47154;BME280;32907;41.412;2.164;2023-06-22T10:22:43;100543.72;;;29.45;40.82
47154;BME280;32907;41.412;2.164;2023-06-22T10:25:12;100542.56;;;29.46;40.51
47154;BME280;32907;41.412;2.164;2023-06-22T10:27:40;100536.47;;;29.40;40.04
47154;BME280;32907;41.412;2.164;2023-06-22T10:30:10;100539.69;;;29.42;39.34
47154;BME280;32907;41.412;2.164;2023-06-22T10:32:43;100528.91;;;29.37;39.51
47154;BME280;32907;41.412;2.164;2023-06-22T10:35:11;100551.50;;;29.55;39.87
47154;BME280;32907;41.412;2.164;2023-06-22T10:37:45;100535.44;;;29.45;39.40
47154;BME280;32907;41.412;2.164;2023-06-22T10:40:14;100533.47;;;29.45;40.31
47154;BME280;32907;41.412;2.164;2023-06-22T10:42:44;100551.56;;;29.59;39.87
47154;BME280;32907;41.412;2.164;2023-06-22T10:45:12;100542.56;;;29.46;40.17
47154;BME280;32907;41.412;2.164;2023-06-22T10:47:40;100529.44;;;29.43;40.76
47154;BME280;32907;41.412;2.164;2023-06-22T10:50:10;100544.38;;;29.54;40.77
47154;BME280;32907;41.412;2.164;2023-06-22T10:52:38;100553.53;;;29.58;40.79
47154;BME280;32907;41.412;2.164;2023-06-22T10:55:07;100555.44;;;29.54;40.68
47154;BME280;32907;41.412;2.164;2023-06-22T10:57:36;100556.91;;;29.51;40.78
47154;BME280;32907;41.412;2.164;2023-06-22T11:00:05;100571.03;;;29.62;40.96
47154;BME280;32907;41.412;2.164;2023-06-22T11:02:34;100537.72;;;29.43;41.47
47154;BME280;32907;41.412;2.164;2023-06-22T11:05:02;100539.91;;;29.49;41.74
47154;BME280;32907;41.412;2.164;2023-06-22T11:07:34;100566.03;;;29.68;41.99
47154;BME280;32907;41.412;2.164;2023-06-22T11:10:02;100531.31;;;29.39;41.88
47154;BME280;32907;41.412;2.164;2023-06-22T11:12:30;100513.56;;;29.24;41.83
47154;BME280;32907;41.412;2.164;2023-06-22T11:14:58;100467.03;;;29.10;42.19
47154;BME280;32907;41.412;2.164;2023-06-22T11:17:27;100504.13;;;29.25;42.16
47154;BME280;32907;41.412;2.164;2023-06-22T11:19:58;100544.03;;;29.43;42.24
47154;BME280;32907;41.412;2.164;2023-06-22T11:22:28;100569.16;;;29.66;42.13
47154;BME280;32907;41.412;2.164;2023-06-22T11:24:59;100550.78;;;29.58;42.08
47154;BME280;32907;41.412;2.164;2023-06-22T11:27:27;100484.16;;;29.16;41.65
47154;BME280;32907;41.412;2.164;2023-06-22T11:29:55;100547.75;;;29.63;40.66
47154;BME280;32907;41.412;2.164;2023-06-22T11:32:23;100545.44;;;29.65;40.54
47154;BME280;32907;41.412;2.164;2023-06-22T11:34:52;100548.91;;;29.62;40.59
47154;BME280;32907;41.412;2.164;2023-06-22T11:37:21;100516.09;;;29.45;40.14
47154;BME280;32907;41.412;2.164;2023-06-22T11:39:49;100499.50;;;29.45;40.85
47154;BME280;32907;41.412;2.164;2023-06-22T11:42:32;100457.91;;;29.22;41.91
47154;BME280;32907;41.412;2.164;2023-06-22T11:45:00;100516.03;;;29.57;41.82
47154;BME280;32907;41.412;2.164;2023-06-22T11:47:29;100527.06;;;29.73;41.67
47154;BME280;32907;41.412;2.164;2023-06-22T11:49:57;100529.75;;;29.69;41.88
47154;BME280;32907;41.412;2.164;2023-06-22T11:52:25;100490.59;;;29.51;41.62
47154;BME280;32907;41.412;2.164;2023-06-22T11:54:54;100466.69;;;29.43;41.92
47154;BME280;32907;41.412;2.164;2023-06-22T11:57:22;100532.50;;;29.85;41.78
47154;BME280;32907;41.412;2.164;2023-06-22T11:59:51;100441.16;;;29.31;41.68
47154;BME280;32907;41.412;2.164;2023-06-22T12:02:20;100472.53;;;29.54;42.12
47154;BME280;32907;41.412;2.164;2023-06-22T12:04:48;100467.97;;;29.46;42.05
47154;BME280;32907;41.412;2.164;2023-06-22T12:07:16;100417.81;;;29.12;42.10
47154;BME280;32907;41.412;2.164;2023-06-22T12:09:44;100427.78;;;29.17;42.01
47154;BME280;32907;41.412;2.164;2023-06-22T12:12:12;100475.88;;;29.47;40.30
47154;BME280;32907;41.412;2.164;2023-06-22T12:14:40;100526.69;;;29.74;39.77
47154;BME280;32907;41.412;2.164;2023-06-22T12:17:07;100537.75;;;29.74;39.74
47154;BME280;32907;41.412;2.164;2023-06-22T12:19:35;100504.41;;;29.51;39.68
47154;BME280;32907;41.412;2.164;2023-06-22T12:22:06;100385.78;;;28.80;39.53
47154;BME280;32907;41.412;2.164;2023-06-22T12:24:34;100529.94;;;29.76;38.20
47154;BME280;32907;41.412;2.164;2023-06-22T12:27:03;100471.34;;;29.39;38.86
47154;BME280;32907;41.412;2.164;2023-06-22T12:29:31;100525.53;;;29.75;39.34
47154;BME280;32907;41.412;2.164;2023-06-22T12:32:00;100351.56;;;28.53;38.72
47154;BME280;32907;41.412;2.164;2023-06-22T12:34:27;100463.94;;;29.27;35.72
47154;BME280;32907;41.412;2.164;2023-06-22T12:36:56;100545.34;;;29.77;37.22
47154;BME280;32907;41.412;2.164;2023-06-22T12:39:23;100459.31;;;29.32;37.42
47154;BME280;32907;41.412;2.164;2023-06-22T12:41:51;100529.94;;;29.76;37.35
47154;BME280;32907;41.412;2.164;2023-06-22T12:44:19;100509.16;;;29.51;37.60
47154;BME280;32907;41.412;2.164;2023-06-22T12:46:48;100532.84;;;29.84;37.81
47154;BME280;32907;41.412;2.164;2023-06-22T12:49:16;100527.59;;;29.78;37.59
47154;BME280;32907;41.412;2.164;2023-06-22T12:51:45;100516.38;;;29.71;37.23
47154;BME280;32907;41.412;2.164;2023-06-22T12:54:13;100537.94;;;29.81;36.23
47154;BME280;32907;41.412;2.164;2023-06-22T12:56:41;100523.25;;;29.77;35.82
47154;BME280;32907;41.412;2.164;2023-06-22T12:59:11;100517.00;;;29.80;34.45
47154;BME280;32907;41.412;2.164;2023-06-22T13:01:50;100523.56;;;29.92;35.39
47154;BME280;32907;41.412;2.164;2023-06-22T13:04:18;100515.81;;;29.97;34.03
47154;BME280;32907;41.412;2.164;2023-06-22T13:06:47;100540.69;;;30.13;33.75
47154;BME280;32907;41.412;2.164;2023-06-22T13:09:18;100519.31;;;30.10;34.65
47154;BME280;32907;41.412;2.164;2023-06-22T13:11:48;100517.06;;;30.00;34.35
47154;BME280;32907;41.412;2.164;2023-06-22T13:14:16;100512.25;;;29.97;34.65
47154;BME280;32907;41.412;2.164;2023-06-22T13:16:44;100532.69;;;30.08;34.72